sensor_id;sensor_type;location;lat;lon;timestamp;P1;durP1;ratioP1;P2;durP2;ratioP2
10882;SDS011;5494;51.796;10.952;2022-12-26T00:01:24;3.70;;;3.20;;
10882;SDS011;5494;51.796;10.952;2022-12-26T00:03:57;5.73;;;3.20;;
10882;SDS011;5494;51.796;10.952;2022-12-26T00:06:26;6.03;;;3.40;;
10882;SDS011;5494;51.796;10.952;2022-12-26T00:08:56;6.17;;;2.87;;
10882;SDS011;5494;51.796;10.952;2022-12-26T00:11:25;4.07;;;3.23;;
10882;SDS011;5494;51.796;10.952;2022-12-26T00:13:54;5.33;;;3.40;;
10882;SDS011;5494;51.796;10.952;2022-12-26T00:16:25;4.23;;;3.23;;
10882;SDS011;5494;51.796;10.952;2022-12-26T00:18:54;4.27;;;3.20;;
10882;SDS011;5494;51.796;10.952;2022-12-26T00:21:23;4.90;;;3.17;;
10882;SDS011;5494;51.796;10.952;2022-12-26T00:23:53;4.27;;;3.27;;
10882;SDS011;5494;51.796;10.952;2022-12-26T00:26:22;4.20;;;3.20;;
10882;SDS011;5494;51.796;10.952;2022-12-26T00:28:52;5.97;;;3.30;;
10882;SDS011;5494;51.796;10.952;2022-12-26T00:31:22;4.80;;;3.43;;
10882;SDS011;5494;51.796;10.952;2022-12-26T00:33:53;3.97;;;3.13;;
10882;SDS011;5494;51.796;10.952;2022-12-26T00:36:22;3.83;;;3.07;;
10882;SDS011;5494;51.796;10.952;2022-12-26T00:38:54;5.90;;;3.27;;
10882;SDS011;5494;51.796;10.952;2022-12-26T00:41:24;3.70;;;2.80;;
10882;SDS011;5494;51.796;10.952;2022-12-26T00:43:53;4.57;;;3.40;;
10882;SDS011;5494;51.796;10.952;2022-12-26T00:46:22;3.60;;;3.20;;
10882;SDS011;5494;51.796;10.952;2022-12-26T00:48:51;6.43;;;4.27;;
10882;SDS011;5494;51.796;10.952;2022-12-26T00:51:20;4.43;;;3.13;;
10882;SDS011;5494;51.796;10.952;2022-12-26T00:53:49;6.90;;;3.20;;
10882;SDS011;5494;51.796;10.952;2022-12-26T00:56:17;8.17;;;3.77;;
10882;SDS011;5494;51.796;10.952;2022-12-26T00:58:45;5.33;;;3.73;;
10882;SDS011;5494;51.796;10.952;2022-12-26T01:01:15;5.80;;;3.50;;
10882;SDS011;5494;51.796;10.952;2022-12-26T01:03:46;5.23;;;3.23;;
10882;SDS011;5494;51.796;10.952;2022-12-26T01:06:18;4.47;;;3.17;;
10882;SDS011;5494;51.796;10.952;2022-12-26T01:08:46;3.97;;;3.13;;
10882;SDS011;5494;51.796;10.952;2022-12-26T01:11:15;4.73;;;3.13;;
10882;SDS011;5494;51.796;10.952;2022-12-26T01:14:05;3.93;;;3.00;;
10882;SDS011;5494;51.796;10.952;2022-12-26T01:16:36;4.60;;;3.07;;
10882;SDS011;5494;51.796;10.952;2022-12-26T01:19:05;4.77;;;3.30;;
10882;SDS011;5494;51.796;10.952;2022-12-26T01:21:34;3.97;;;3.13;;
10882;SDS011;5494;51.796;10.952;2022-12-26T01:24:02;4.80;;;3.53;;
10882;SDS011;5494;51.796;10.952;2022-12-26T01:26:34;4.43;;;3.43;;
10882;SDS011;5494;51.796;10.952;2022-12-26T01:29:02;4.67;;;3.20;;
10882;SDS011;5494;51.796;10.952;2022-12-26T01:31:30;4.40;;;3.10;;
10882;SDS011;5494;51.796;10.952;2022-12-26T01:33:58;4.83;;;3.07;;
10882;SDS011;5494;51.796;10.952;2022-12-26T01:36:26;3.57;;;2.87;;
10882;SDS011;5494;51.796;10.952;2022-12-26T01:38:54;3.63;;;3.00;;
10882;SDS011;5494;51.796;10.952;2022-12-26T01:41:22;3.73;;;3.00;;
10882;SDS011;5494;51.796;10.952;2022-12-26T01:43:52;3.83;;;2.80;;
10882;SDS011;5494;51.796;10.952;2022-12-26T01:46:25;4.43;;;2.53;;
10882;SDS011;5494;51.796;10.952;2022-12-26T01:48:59;3.07;;;2.67;;
10882;SDS011;5494;51.796;10.952;2022-12-26T01:51:35;4.57;;;3.03;;
10882;SDS011;5494;51.796;10.952;2022-12-26T01:54:11;3.87;;;2.73;;
10882;SDS011;5494;51.796;10.952;2022-12-26T01:57:01;3.40;;;2.50;;
10882;SDS011;5494;51.796;10.952;2022-12-26T01:59:34;2.90;;;2.60;;
10882;SDS011;5494;51.796;10.952;2022-12-26T02:02:06;5.07;;;3.40;;
10882;SDS011;5494;51.796;10.952;2022-12-26T02:04:37;4.70;;;2.33;;
10882;SDS011;5494;51.796;10.952;2022-12-26T02:07:30;4.20;;;2.53;;
10882;SDS011;5494;51.796;10.952;2022-12-26T02:10:00;3.60;;;2.27;;
10882;SDS011;5494;51.796;10.952;2022-12-26T02:12:32;4.43;;;2.87;;
10882;SDS011;5494;51.796;10.952;2022-12-26T02:15:07;3.93;;;2.40;;
10882;SDS011;5494;51.796;10.952;2022-12-26T02:17:40;2.87;;;2.30;;
10882;SDS011;5494;51.796;10.952;2022-12-26T02:20:12;2.60;;;2.00;;
10882;SDS011;5494;51.796;10.952;2022-12-26T02:22:58;3.33;;;2.47;;
10882;SDS011;5494;51.796;10.952;2022-12-26T02:26:07;3.07;;;2.77;;
10882;SDS011;5494;51.796;10.952;2022-12-26T02:29:09;2.30;;;2.10;;
10882;SDS011;5494;51.796;10.952;2022-12-26T02:32:07;3.00;;;2.70;;
10882;SDS011;5494;51.796;10.952;2022-12-26T02:34:49;3.47;;;2.23;;
10882;SDS011;5494;51.796;10.952;2022-12-26T02:37:33;3.97;;;2.50;;
10882;SDS011;5494;51.796;10.952;2022-12-26T02:40:30;3.40;;;2.90;;
10882;SDS011;5494;51.796;10.952;2022-12-26T02:43:15;4.07;;;2.47;;
10882;SDS011;5494;51.796;10.952;2022-12-26T02:45:53;3.53;;;2.27;;
10882;SDS011;5494;51.796;10.952;2022-12-26T02:48:56;3.23;;;2.50;;
10882;SDS011;5494;51.796;10.952;2022-12-26T02:51:34;3.80;;;2.33;;
10882;SDS011;5494;51.796;10.952;2022-12-26T02:54:36;3.00;;;2.37;;
10882;SDS011;5494;51.796;10.952;2022-12-26T02:57:33;3.03;;;2.37;;
10882;SDS011;5494;51.796;10.952;2022-12-26T03:00:27;5.13;;;2.30;;
10882;SDS011;5494;51.796;10.952;2022-12-26T03:03:18;2.13;;;1.93;;
10882;SDS011;5494;51.796;10.952;2022-12-26T03:06:14;2.07;;;1.77;;
10882;SDS011;5494;51.796;10.952;2022-12-26T03:09:15;2.23;;;1.70;;
10882;SDS011;5494;51.796;10.952;2022-12-26T03:12:20;1.70;;;1.40;;
10882;SDS011;5494;51.796;10.952;2022-12-26T03:15:19;1.80;;;1.50;;
10882;SDS011;5494;51.796;10.952;2022-12-26T03:17:53;2.33;;;1.50;;
10882;SDS011;5494;51.796;10.952;2022-12-26T03:20:26;1.53;;;1.27;;
10882;SDS011;5494;51.796;10.952;2022-12-26T03:23:01;2.30;;;1.17;;
10882;SDS011;5494;51.796;10.952;2022-12-26T03:25:35;1.07;;;0.97;;
10882;SDS011;5494;51.796;10.952;2022-12-26T03:28:28;1.30;;;0.90;;
10882;SDS011;5494;51.796;10.952;2022-12-26T03:30:57;0.70;;;0.60;;
10882;SDS011;5494;51.796;10.952;2022-12-26T03:33:30;0.50;;;0.50;;
10882;SDS011;5494;51.796;10.952;2022-12-26T03:36:34;1.27;;;0.80;;
10882;SDS011;5494;51.796;10.952;2022-12-26T03:39:19;1.10;;;0.60;;
10882;SDS011;5494;51.796;10.952;2022-12-26T03:42:17;0.40;;;0.40;;
10882;SDS011;5494;51.796;10.952;2022-12-26T03:45:16;0.60;;;0.50;;
10882;SDS011;5494;51.796;10.952;2022-12-26T03:48:17;2.70;;;0.80;;
10882;SDS011;5494;51.796;10.952;2022-12-26T03:51:14;1.20;;;0.80;;
10882;SDS011;5494;51.796;10.952;2022-12-26T03:54:07;4.50;;;1.30;;
10882;SDS011;5494;51.796;10.952;2022-12-26T03:57:00;2.97;;;1.20;;
10882;SDS011;5494;51.796;10.952;2022-12-26T03:59:54;2.00;;;1.30;;
10882;SDS011;5494;51.796;10.952;2022-12-26T04:02:49;2.43;;;1.63;;
10882;SDS011;5494;51.796;10.952;2022-12-26T04:05:43;2.10;;;1.80;;
10882;SDS011;5494;51.796;10.952;2022-12-26T04:08:33;1.87;;;1.70;;
10882;SDS011;5494;51.796;10.952;2022-12-26T04:11:29;3.70;;;2.13;;
10882;SDS011;5494;51.796;10.952;2022-12-26T04:14:31;4.67;;;2.83;;
10882;SDS011;5494;51.796;10.952;2022-12-26T04:17:26;2.97;;;2.50;;
10882;SDS011;5494;51.796;10.952;2022-12-26T04:20:23;3.30;;;2.30;;
10882;SDS011;5494;51.796;10.952;2022-12-26T04:23:02;3.37;;;2.67;;
10882;SDS011;5494;51.796;10.952;2022-12-26T04:25:54;3.33;;;2.60;;
10882;SDS011;5494;51.796;10.952;2022-12-26T04:28:49;4.10;;;3.10;;
10882;SDS011;5494;51.796;10.952;2022-12-26T04:31:37;2.60;;;2.40;;
10882;SDS011;5494;51.796;10.952;2022-12-26T04:34:36;3.93;;;2.93;;
10882;SDS011;5494;51.796;10.952;2022-12-26T04:37:32;4.13;;;3.10;;
10882;SDS011;5494;51.796;10.952;2022-12-26T04:40:23;3.50;;;2.73;;
10882;SDS011;5494;51.796;10.952;2022-12-26T04:43:15;4.13;;;2.60;;
10882;SDS011;5494;51.796;10.952;2022-12-26T04:46:16;3.07;;;2.70;;
10882;SDS011;5494;51.796;10.952;2022-12-26T04:48:50;4.73;;;2.77;;
10882;SDS011;5494;51.796;10.952;2022-12-26T04:51:38;3.33;;;2.33;;
10882;SDS011;5494;51.796;10.952;2022-12-26T04:54:06;3.53;;;2.60;;
10882;SDS011;5494;51.796;10.952;2022-12-26T04:56:34;3.90;;;2.30;;
10882;SDS011;5494;51.796;10.952;2022-12-26T04:59:02;3.20;;;2.67;;
10882;SDS011;5494;51.796;10.952;2022-12-26T05:01:30;3.13;;;2.30;;
10882;SDS011;5494;51.796;10.952;2022-12-26T05:04:18;4.33;;;2.67;;
10882;SDS011;5494;51.796;10.952;2022-12-26T05:07:04;4.00;;;2.63;;
10882;SDS011;5494;51.796;10.952;2022-12-26T05:09:59;4.93;;;2.70;;
10882;SDS011;5494;51.796;10.952;2022-12-26T05:12:30;4.67;;;2.83;;
10882;SDS011;5494;51.796;10.952;2022-12-26T05:14:58;5.13;;;2.90;;
10882;SDS011;5494;51.796;10.952;2022-12-26T05:17:26;3.63;;;3.10;;
10882;SDS011;5494;51.796;10.952;2022-12-26T05:20:14;3.37;;;2.73;;
10882;SDS011;5494;51.796;10.952;2022-12-26T05:22:59;3.40;;;2.53;;
10882;SDS011;5494;51.796;10.952;2022-12-26T05:25:47;3.63;;;2.93;;
10882;SDS011;5494;51.796;10.952;2022-12-26T05:28:33;3.77;;;2.60;;
10882;SDS011;5494;51.796;10.952;2022-12-26T05:31:11;3.90;;;2.40;;
10882;SDS011;5494;51.796;10.952;2022-12-26T05:33:41;3.87;;;2.60;;
10882;SDS011;5494;51.796;10.952;2022-12-26T05:36:30;3.53;;;2.53;;
10882;SDS011;5494;51.796;10.952;2022-12-26T05:39:04;2.57;;;2.23;;
10882;SDS011;5494;51.796;10.952;2022-12-26T05:41:34;4.27;;;2.43;;
10882;SDS011;5494;51.796;10.952;2022-12-26T05:44:03;3.70;;;2.40;;
10882;SDS011;5494;51.796;10.952;2022-12-26T05:46:32;2.90;;;2.00;;
10882;SDS011;5494;51.796;10.952;2022-12-26T05:49:01;2.90;;;1.87;;
10882;SDS011;5494;51.796;10.952;2022-12-26T05:51:33;3.80;;;1.93;;
10882;SDS011;5494;51.796;10.952;2022-12-26T05:54:02;3.50;;;1.87;;
10882;SDS011;5494;51.796;10.952;2022-12-26T05:56:32;2.77;;;2.00;;
10882;SDS011;5494;51.796;10.952;2022-12-26T05:59:00;3.07;;;1.90;;
10882;SDS011;5494;51.796;10.952;2022-12-26T06:01:28;2.77;;;1.90;;
10882;SDS011;5494;51.796;10.952;2022-12-26T06:03:57;2.97;;;2.03;;
10882;SDS011;5494;51.796;10.952;2022-12-26T06:06:26;2.77;;;1.63;;
10882;SDS011;5494;51.796;10.952;2022-12-26T06:08:56;2.90;;;1.70;;
10882;SDS011;5494;51.796;10.952;2022-12-26T06:11:25;2.67;;;1.90;;
10882;SDS011;5494;51.796;10.952;2022-12-26T06:13:53;4.23;;;2.00;;
10882;SDS011;5494;51.796;10.952;2022-12-26T06:16:21;2.33;;;1.90;;
10882;SDS011;5494;51.796;10.952;2022-12-26T06:18:50;3.57;;;1.90;;
10882;SDS011;5494;51.796;10.952;2022-12-26T06:21:20;2.33;;;1.77;;
10882;SDS011;5494;51.796;10.952;2022-12-26T06:23:50;3.43;;;2.33;;
10882;SDS011;5494;51.796;10.952;2022-12-26T06:26:20;2.67;;;1.87;;
10882;SDS011;5494;51.796;10.952;2022-12-26T06:28:47;3.33;;;1.93;;
10882;SDS011;5494;51.796;10.952;2022-12-26T06:31:16;2.03;;;1.50;;
10882;SDS011;5494;51.796;10.952;2022-12-26T06:33:47;2.57;;;1.83;;
10882;SDS011;5494;51.796;10.952;2022-12-26T06:36:18;3.50;;;1.80;;
10882;SDS011;5494;51.796;10.952;2022-12-26T06:38:49;3.03;;;1.93;;
10882;SDS011;5494;51.796;10.952;2022-12-26T06:41:21;2.13;;;1.60;;
10882;SDS011;5494;51.796;10.952;2022-12-26T06:43:50;2.50;;;1.93;;
10882;SDS011;5494;51.796;10.952;2022-12-26T06:46:19;3.53;;;2.30;;
10882;SDS011;5494;51.796;10.952;2022-12-26T06:48:50;5.43;;;2.53;;
10882;SDS011;5494;51.796;10.952;2022-12-26T06:51:19;3.20;;;2.40;;
10882;SDS011;5494;51.796;10.952;2022-12-26T06:53:50;3.57;;;1.83;;
10882;SDS011;5494;51.796;10.952;2022-12-26T06:56:21;3.97;;;1.97;;
10882;SDS011;5494;51.796;10.952;2022-12-26T06:58:52;2.47;;;1.80;;
10882;SDS011;5494;51.796;10.952;2022-12-26T07:01:21;2.20;;;1.90;;
10882;SDS011;5494;51.796;10.952;2022-12-26T07:03:50;2.17;;;1.80;;
10882;SDS011;5494;51.796;10.952;2022-12-26T07:06:21;3.70;;;2.20;;
10882;SDS011;5494;51.796;10.952;2022-12-26T07:08:53;4.17;;;2.17;;
10882;SDS011;5494;51.796;10.952;2022-12-26T07:11:27;2.80;;;1.50;;
10882;SDS011;5494;51.796;10.952;2022-12-26T07:13:58;2.90;;;1.77;;
10882;SDS011;5494;51.796;10.952;2022-12-26T07:16:27;1.93;;;1.80;;
10882;SDS011;5494;51.796;10.952;2022-12-26T07:18:57;2.33;;;2.00;;
10882;SDS011;5494;51.796;10.952;2022-12-26T07:21:26;2.23;;;1.80;;
10882;SDS011;5494;51.796;10.952;2022-12-26T07:23:57;3.30;;;1.70;;
10882;SDS011;5494;51.796;10.952;2022-12-26T07:26:26;2.10;;;1.43;;
10882;SDS011;5494;51.796;10.952;2022-12-26T07:28:55;2.43;;;1.10;;
10882;SDS011;5494;51.796;10.952;2022-12-26T07:31:25;2.97;;;1.57;;
10882;SDS011;5494;51.796;10.952;2022-12-26T07:33:54;2.90;;;1.40;;
10882;SDS011;5494;51.796;10.952;2022-12-26T07:36:23;2.07;;;1.37;;
10882;SDS011;5494;51.796;10.952;2022-12-26T07:38:52;1.87;;;0.90;;
10882;SDS011;5494;51.796;10.952;2022-12-26T07:41:20;2.03;;;1.47;;
10882;SDS011;5494;51.796;10.952;2022-12-26T07:44:22;2.17;;;1.30;;
10882;SDS011;5494;51.796;10.952;2022-12-26T07:46:50;1.30;;;0.90;;
10882;SDS011;5494;51.796;10.952;2022-12-26T07:49:18;0.97;;;0.60;;
10882;SDS011;5494;51.796;10.952;2022-12-26T07:51:46;1.57;;;0.80;;
10882;SDS011;5494;51.796;10.952;2022-12-26T07:54:14;1.37;;;0.93;;
10882;SDS011;5494;51.796;10.952;2022-12-26T07:56:43;1.93;;;0.90;;
10882;SDS011;5494;51.796;10.952;2022-12-26T07:59:12;2.00;;;0.77;;
10882;SDS011;5494;51.796;10.952;2022-12-26T08:01:43;2.57;;;1.40;;
10882;SDS011;5494;51.796;10.952;2022-12-26T08:04:11;2.33;;;1.47;;
10882;SDS011;5494;51.796;10.952;2022-12-26T08:06:40;1.80;;;1.40;;
10882;SDS011;5494;51.796;10.952;2022-12-26T08:09:10;1.83;;;1.00;;
10882;SDS011;5494;51.796;10.952;2022-12-26T08:11:41;1.10;;;1.00;;
10882;SDS011;5494;51.796;10.952;2022-12-26T08:14:10;1.73;;;1.20;;
10882;SDS011;5494;51.796;10.952;2022-12-26T08:16:42;1.10;;;0.77;;
10882;SDS011;5494;51.796;10.952;2022-12-26T08:19:18;0.70;;;0.70;;
10882;SDS011;5494;51.796;10.952;2022-12-26T08:21:46;1.07;;;0.97;;
10882;SDS011;5494;51.796;10.952;2022-12-26T08:24:14;1.40;;;1.10;;
10882;SDS011;5494;51.796;10.952;2022-12-26T08:26:42;2.90;;;1.50;;
10882;SDS011;5494;51.796;10.952;2022-12-26T08:29:11;1.63;;;1.53;;
10882;SDS011;5494;51.796;10.952;2022-12-26T08:31:39;1.27;;;0.93;;
10882;SDS011;5494;51.796;10.952;2022-12-26T08:34:08;1.10;;;0.87;;
10882;SDS011;5494;51.796;10.952;2022-12-26T08:36:38;0.97;;;0.90;;
10882;SDS011;5494;51.796;10.952;2022-12-26T08:39:06;1.90;;;1.30;;
10882;SDS011;5494;51.796;10.952;2022-12-26T08:41:34;2.47;;;1.03;;
10882;SDS011;5494;51.796;10.952;2022-12-26T08:44:02;1.03;;;0.93;;
10882;SDS011;5494;51.796;10.952;2022-12-26T08:46:51;2.10;;;1.10;;
10882;SDS011;5494;51.796;10.952;2022-12-26T08:49:20;0.93;;;0.90;;
10882;SDS011;5494;51.796;10.952;2022-12-26T08:51:48;1.60;;;1.50;;
10882;SDS011;5494;51.796;10.952;2022-12-26T08:54:16;3.30;;;1.40;;
10882;SDS011;5494;51.796;10.952;2022-12-26T08:56:44;1.57;;;1.30;;
10882;SDS011;5494;51.796;10.952;2022-12-26T08:59:12;1.73;;;1.30;;
10882;SDS011;5494;51.796;10.952;2022-12-26T09:01:40;1.60;;;1.50;;
10882;SDS011;5494;51.796;10.952;2022-12-26T09:04:09;1.33;;;1.10;;
10882;SDS011;5494;51.796;10.952;2022-12-26T09:06:40;1.53;;;1.10;;
10882;SDS011;5494;51.796;10.952;2022-12-26T09:09:09;2.00;;;1.17;;
10882;SDS011;5494;51.796;10.952;2022-12-26T09:11:39;0.93;;;0.80;;
10882;SDS011;5494;51.796;10.952;2022-12-26T09:14:08;1.13;;;0.87;;
10882;SDS011;5494;51.796;10.952;2022-12-26T09:16:37;1.90;;;1.00;;
10882;SDS011;5494;51.796;10.952;2022-12-26T09:19:16;1.43;;;1.23;;
10882;SDS011;5494;51.796;10.952;2022-12-26T09:21:47;1.10;;;1.00;;
10882;SDS011;5494;51.796;10.952;2022-12-26T09:24:38;1.20;;;1.10;;
10882;SDS011;5494;51.796;10.952;2022-12-26T09:27:06;1.53;;;1.10;;
10882;SDS011;5494;51.796;10.952;2022-12-26T09:29:35;2.10;;;1.23;;
10882;SDS011;5494;51.796;10.952;2022-12-26T09:32:04;1.90;;;1.70;;
10882;SDS011;5494;51.796;10.952;2022-12-26T09:34:32;2.90;;;2.13;;
10882;SDS011;5494;51.796;10.952;2022-12-26T09:37:01;2.90;;;1.80;;
10882;SDS011;5494;51.796;10.952;2022-12-26T09:39:30;1.40;;;1.20;;
10882;SDS011;5494;51.796;10.952;2022-12-26T09:42:00;5.10;;;2.83;;
10882;SDS011;5494;51.796;10.952;2022-12-26T09:44:44;2.70;;;1.80;;
10882;SDS011;5494;51.796;10.952;2022-12-26T09:47:33;5.63;;;3.67;;
10882;SDS011;5494;51.796;10.952;2022-12-26T09:50:10;2.63;;;2.10;;
10882;SDS011;5494;51.796;10.952;2022-12-26T09:52:47;2.30;;;1.70;;
10882;SDS011;5494;51.796;10.952;2022-12-26T09:55:29;2.90;;;2.07;;
10882;SDS011;5494;51.796;10.952;2022-12-26T09:58:10;1.57;;;0.90;;
10882;SDS011;5494;51.796;10.952;2022-12-26T10:00:57;1.30;;;1.10;;
10882;SDS011;5494;51.796;10.952;2022-12-26T10:03:33;1.47;;;1.13;;
10882;SDS011;5494;51.796;10.952;2022-12-26T10:06:10;2.30;;;1.30;;
10882;SDS011;5494;51.796;10.952;2022-12-26T10:08:47;2.90;;;2.00;;
10882;SDS011;5494;51.796;10.952;2022-12-26T10:11:38;3.23;;;2.27;;
10882;SDS011;5494;51.796;10.952;2022-12-26T10:14:20;1.57;;;1.00;;
10882;SDS011;5494;51.796;10.952;2022-12-26T10:17:02;2.13;;;1.33;;
10882;SDS011;5494;51.796;10.952;2022-12-26T10:19:46;1.80;;;1.30;;
10882;SDS011;5494;51.796;10.952;2022-12-26T10:22:55;1.97;;;1.33;;
10882;SDS011;5494;51.796;10.952;2022-12-26T10:26:02;2.47;;;1.57;;
10882;SDS011;5494;51.796;10.952;2022-12-26T10:28:38;3.30;;;2.30;;
10882;SDS011;5494;51.796;10.952;2022-12-26T10:31:15;4.47;;;2.40;;
10882;SDS011;5494;51.796;10.952;2022-12-26T10:33:51;3.00;;;2.07;;
10882;SDS011;5494;51.796;10.952;2022-12-26T10:36:29;3.70;;;1.70;;
10882;SDS011;5494;51.796;10.952;2022-12-26T10:39:03;2.20;;;1.30;;
10882;SDS011;5494;51.796;10.952;2022-12-26T10:41:44;1.57;;;1.20;;
10882;SDS011;5494;51.796;10.952;2022-12-26T10:44:16;2.50;;;1.30;;
10882;SDS011;5494;51.796;10.952;2022-12-26T10:46:55;3.20;;;2.30;;
10882;SDS011;5494;51.796;10.952;2022-12-26T10:49:43;2.80;;;2.00;;
10882;SDS011;5494;51.796;10.952;2022-12-26T10:52:14;2.07;;;1.80;;
10882;SDS011;5494;51.796;10.952;2022-12-26T10:54:46;2.80;;;1.37;;
10882;SDS011;5494;51.796;10.952;2022-12-26T10:57:41;2.93;;;2.50;;
10882;SDS011;5494;51.796;10.952;2022-12-26T11:00:16;3.70;;;3.20;;
10882;SDS011;5494;51.796;10.952;2022-12-26T11:03:00;3.80;;;2.40;;
10882;SDS011;5494;51.796;10.952;2022-12-26T11:05:31;3.87;;;2.30;;
10882;SDS011;5494;51.796;10.952;2022-12-26T11:08:22;1.00;;;0.90;;
10882;SDS011;5494;51.796;10.952;2022-12-26T11:11:00;2.40;;;1.63;;
10882;SDS011;5494;51.796;10.952;2022-12-26T11:13:34;2.93;;;2.10;;
10882;SDS011;5494;51.796;10.952;2022-12-26T11:16:06;2.47;;;1.77;;
10882;SDS011;5494;51.796;10.952;2022-12-26T11:18:37;1.60;;;1.50;;
10882;SDS011;5494;51.796;10.952;2022-12-26T11:21:19;5.77;;;2.63;;
10882;SDS011;5494;51.796;10.952;2022-12-26T11:23:49;2.90;;;1.43;;
10882;SDS011;5494;51.796;10.952;2022-12-26T11:26:22;1.10;;;1.00;;
10882;SDS011;5494;51.796;10.952;2022-12-26T11:29:05;1.67;;;1.20;;
10882;SDS011;5494;51.796;10.952;2022-12-26T11:31:39;3.93;;;3.20;;
10882;SDS011;5494;51.796;10.952;2022-12-26T11:34:12;3.80;;;1.80;;
10882;SDS011;5494;51.796;10.952;2022-12-26T11:36:47;2.30;;;1.67;;
10882;SDS011;5494;51.796;10.952;2022-12-26T11:39:19;1.83;;;1.23;;
10882;SDS011;5494;51.796;10.952;2022-12-26T11:41:51;1.53;;;1.00;;
10882;SDS011;5494;51.796;10.952;2022-12-26T11:44:23;2.17;;;1.53;;
10882;SDS011;5494;51.796;10.952;2022-12-26T11:46:56;3.03;;;1.47;;
10882;SDS011;5494;51.796;10.952;2022-12-26T11:49:36;2.33;;;1.70;;
10882;SDS011;5494;51.796;10.952;2022-12-26T11:55:21;2.87;;;2.03;;
10882;SDS011;5494;51.796;10.952;2022-12-26T11:57:59;9.10;;;4.87;;
10882;SDS011;5494;51.796;10.952;2022-12-26T12:03:47;7.10;;;3.80;;
10882;SDS011;5494;51.796;10.952;2022-12-26T12:06:29;5.60;;;3.30;;
10882;SDS011;5494;51.796;10.952;2022-12-26T12:09:20;2.43;;;1.50;;
10882;SDS011;5494;51.796;10.952;2022-12-26T12:12:06;1.23;;;0.83;;
10882;SDS011;5494;51.796;10.952;2022-12-26T12:14:47;1.80;;;1.40;;
10882;SDS011;5494;51.796;10.952;2022-12-26T12:17:29;2.10;;;1.00;;
10882;SDS011;5494;51.796;10.952;2022-12-26T12:20:16;2.20;;;1.43;;
10882;SDS011;5494;51.796;10.952;2022-12-26T12:23:04;1.40;;;1.10;;
10882;SDS011;5494;51.796;10.952;2022-12-26T12:26:06;1.70;;;1.47;;
10882;SDS011;5494;51.796;10.952;2022-12-26T12:28:44;1.70;;;1.40;;
10882;SDS011;5494;51.796;10.952;2022-12-26T12:31:50;1.53;;;1.30;;
10882;SDS011;5494;51.796;10.952;2022-12-26T12:34:40;2.53;;;1.90;;
10882;SDS011;5494;51.796;10.952;2022-12-26T12:37:45;4.03;;;2.10;;
10882;SDS011;5494;51.796;10.952;2022-12-26T12:40:41;2.80;;;1.63;;
10882;SDS011;5494;51.796;10.952;2022-12-26T12:43:20;3.40;;;2.17;;
10882;SDS011;5494;51.796;10.952;2022-12-26T12:46:02;1.77;;;1.13;;
10882;SDS011;5494;51.796;10.952;2022-12-26T12:48:47;2.27;;;1.13;;
10882;SDS011;5494;51.796;10.952;2022-12-26T12:51:31;1.50;;;1.37;;
10882;SDS011;5494;51.796;10.952;2022-12-26T12:54:22;1.47;;;0.90;;
10882;SDS011;5494;51.796;10.952;2022-12-26T12:57:15;2.37;;;1.80;;
10882;SDS011;5494;51.796;10.952;2022-12-26T12:59:56;1.80;;;0.73;;
10882;SDS011;5494;51.796;10.952;2022-12-26T13:02:40;2.97;;;1.90;;
10882;SDS011;5494;51.796;10.952;2022-12-26T13:05:19;2.77;;;1.90;;
10882;SDS011;5494;51.796;10.952;2022-12-26T13:08:03;17.10;;;8.87;;
10882;SDS011;5494;51.796;10.952;2022-12-26T13:10:40;3.03;;;2.23;;
10882;SDS011;5494;51.796;10.952;2022-12-26T13:13:19;7.23;;;5.57;;
10882;SDS011;5494;51.796;10.952;2022-12-26T13:15:55;3.13;;;2.50;;
10882;SDS011;5494;51.796;10.952;2022-12-26T13:18:30;4.00;;;2.90;;
10882;SDS011;5494;51.796;10.952;2022-12-26T13:21:04;3.97;;;1.90;;
10882;SDS011;5494;51.796;10.952;2022-12-26T13:23:41;1.80;;;1.70;;
10882;SDS011;5494;51.796;10.952;2022-12-26T13:26:33;2.10;;;1.90;;
10882;SDS011;5494;51.796;10.952;2022-12-26T13:29:09;1.70;;;1.20;;
10882;SDS011;5494;51.796;10.952;2022-12-26T13:31:43;2.80;;;1.20;;
10882;SDS011;5494;51.796;10.952;2022-12-26T13:34:13;1.57;;;1.00;;
10882;SDS011;5494;51.796;10.952;2022-12-26T13:36:44;1.40;;;1.30;;
10882;SDS011;5494;51.796;10.952;2022-12-26T13:39:21;2.57;;;1.60;;
10882;SDS011;5494;51.796;10.952;2022-12-26T13:42:01;2.07;;;1.80;;
10882;SDS011;5494;51.796;10.952;2022-12-26T13:51:55;2.50;;;1.40;;
10882;SDS011;5494;51.796;10.952;2022-12-26T13:54:28;3.30;;;1.73;;
10882;SDS011;5494;51.796;10.952;2022-12-26T13:57:04;3.53;;;1.60;;
10882;SDS011;5494;51.796;10.952;2022-12-26T14:00:04;3.50;;;1.73;;
10882;SDS011;5494;51.796;10.952;2022-12-26T14:02:49;1.50;;;1.20;;
10882;SDS011;5494;51.796;10.952;2022-12-26T14:05:54;2.63;;;1.20;;
10882;SDS011;5494;51.796;10.952;2022-12-26T14:08:43;1.27;;;1.00;;
10882;SDS011;5494;51.796;10.952;2022-12-26T14:11:40;1.27;;;1.00;;
10882;SDS011;5494;51.796;10.952;2022-12-26T14:14:25;2.00;;;1.13;;
10882;SDS011;5494;51.796;10.952;2022-12-26T14:17:10;5.47;;;1.53;;
10882;SDS011;5494;51.796;10.952;2022-12-26T14:19:56;3.03;;;1.20;;
10882;SDS011;5494;51.796;10.952;2022-12-26T14:22:39;4.30;;;1.60;;
10882;SDS011;5494;51.796;10.952;2022-12-26T14:25:28;1.43;;;1.23;;
10882;SDS011;5494;51.796;10.952;2022-12-26T14:28:19;4.13;;;2.10;;
10882;SDS011;5494;51.796;10.952;2022-12-26T14:30:58;3.27;;;1.70;;
10882;SDS011;5494;51.796;10.952;2022-12-26T14:33:44;4.17;;;3.13;;
10882;SDS011;5494;51.796;10.952;2022-12-26T14:36:22;2.90;;;1.30;;
10882;SDS011;5494;51.796;10.952;2022-12-26T14:39:04;1.80;;;1.60;;
10882;SDS011;5494;51.796;10.952;2022-12-26T14:51:25;1.97;;;1.50;;
10882;SDS011;5494;51.796;10.952;2022-12-26T14:54:16;1.20;;;1.10;;
10882;SDS011;5494;51.796;10.952;2022-12-26T15:00:14;2.33;;;1.70;;
10882;SDS011;5494;51.796;10.952;2022-12-26T15:03:16;2.73;;;1.33;;
10882;SDS011;5494;51.796;10.952;2022-12-26T15:09:40;1.90;;;1.30;;
10882;SDS011;5494;51.796;10.952;2022-12-26T15:13:02;1.57;;;1.17;;
10882;SDS011;5494;51.796;10.952;2022-12-26T15:16:18;4.27;;;2.67;;
10882;SDS011;5494;51.796;10.952;2022-12-26T15:22:49;2.97;;;1.83;;
10882;SDS011;5494;51.796;10.952;2022-12-26T15:29:06;2.50;;;1.90;;
10882;SDS011;5494;51.796;10.952;2022-12-26T15:32:03;3.73;;;2.07;;
10882;SDS011;5494;51.796;10.952;2022-12-26T15:34:46;2.27;;;1.40;;
10882;SDS011;5494;51.796;10.952;2022-12-26T15:37:44;2.83;;;1.80;;
10882;SDS011;5494;51.796;10.952;2022-12-26T15:40:34;3.60;;;1.80;;
10882;SDS011;5494;51.796;10.952;2022-12-26T15:43:17;4.27;;;1.63;;
10882;SDS011;5494;51.796;10.952;2022-12-26T15:46:04;2.47;;;1.80;;
10882;SDS011;5494;51.796;10.952;2022-12-26T15:48:51;1.63;;;1.50;;
10882;SDS011;5494;51.796;10.952;2022-12-26T15:51:46;2.00;;;1.17;;
10882;SDS011;5494;51.796;10.952;2022-12-26T15:54:37;2.43;;;1.20;;
10882;SDS011;5494;51.796;10.952;2022-12-26T15:57:52;1.53;;;1.37;;
10882;SDS011;5494;51.796;10.952;2022-12-26T16:00:29;2.40;;;2.00;;
10882;SDS011;5494;51.796;10.952;2022-12-26T16:03:05;3.83;;;2.00;;
10882;SDS011;5494;51.796;10.952;2022-12-26T16:05:51;3.17;;;2.00;;
10882;SDS011;5494;51.796;10.952;2022-12-26T16:08:47;8.43;;;3.37;;
10882;SDS011;5494;51.796;10.952;2022-12-26T16:11:41;8.07;;;2.63;;
10882;SDS011;5494;51.796;10.952;2022-12-26T16:14:26;1.20;;;1.10;;
10882;SDS011;5494;51.796;10.952;2022-12-26T16:17:20;2.40;;;1.00;;
10882;SDS011;5494;51.796;10.952;2022-12-26T16:19:50;2.53;;;1.07;;
10882;SDS011;5494;51.796;10.952;2022-12-26T16:22:22;1.77;;;1.10;;
10882;SDS011;5494;51.796;10.952;2022-12-26T16:25:10;3.67;;;1.10;;
10882;SDS011;5494;51.796;10.952;2022-12-26T16:27:43;4.50;;;1.30;;
10882;SDS011;5494;51.796;10.952;2022-12-26T16:30:14;2.23;;;1.10;;
10882;SDS011;5494;51.796;10.952;2022-12-26T16:32:46;2.07;;;1.00;;
10882;SDS011;5494;51.796;10.952;2022-12-26T16:35:19;1.93;;;1.00;;